Fortescue, Missouri
Current Conditions -  °F | °C
As of 12:53 PM on Monday 20 Oct 2014 (Local Time) from KFNB Reporting Station
Clear Clear  
Wind Chill: 72°   Ceiling: Unl
Heat Index: 72°   Visibility: 10mi
Dew Point: 43°   Wind: 6mph
Humidity: 35%   Direction: NA
Pressure: 30.07"   Gusts: NA
Location:  40.1428°N, 95.3614°W
Report Text: KFNB 201753Z AUTO VRB05KT 10SM CLR 22/06 A3007 RMK AO2 SLP179 T02220061 10222 20083 50000
Loading
Personal Weather Stations






























Interactive Weather Map
Tropical Storm Tracking
New forecast layout! Learn more

10-Day Weather Forecast

Advertisements
Track Severe Weather on mobile